Aérodrome :







RETROUVEZ-NOUS SUR...

 
LOGIN :

S'inscrire | Disclaimer

   EN    FR    IT 

 









Légende :    VFR   VFR Marginal   IFR   IFR Intensif   IFR Très Intensif
Visi : 
Plafond : 
>= 8 km
>= 3000ft
5 à 8 km
1000 à 3000 ft
1500m à 5 km
500 à 1000 ft
800 à 1500m
200 à 500 ft
< 800m
< 200 ft
Symboles :   Orages  Brouillard  Fortes neiges  Fortes précipitations  Vent > 20 kt






- Altitude de l'aérodrome : 62 ft
- Code IATA : ANU


TAPA - V C Bird Int.

DERNIER METAR :
  • 310100Z 09009KT 060V130 9999 SCT018 SCT036 28/23 Q1017 NOSIG

METARs EXPIRÉS :
  • 310000Z 09009KT 050V120 9999 FEW020 SCT040 28/23 Q1016 NOSIG
  • 302300Z 10009KT 050V140 9999 FEW020 SCT040 27/23 Q1016 NOSIG

TAF TAF TAPA
Valide du 30 à 18h jusqu'au 31 à 18h UTC


301700Z 3018/3118 10010KT 9999 SCT020
FIR TTZP / Amérique du Nord



MET'MAP, la Météo Aéronautique d'un coup d'oeil ! - Copyright ORBIFLY Décembre 2007 - Disclaimer

ORBIFLY MET'MAP TEAM :

Programmation & Développement : Alexandra Zaïnal
Sur une idée originale de : Baudouin d'Aumeries
Assistance à la programmation : Marc-Olivier Méhu
Soutien technique & logistique : Manuel Goepfert

Contact : metmap@orbifly.com




SOURCES & CREDITS :

   NOAA